createdAt,value
2018-09-24T00:01:02.156Z,98924.13
2018-09-24T00:03:29.432Z,98929.34
2018-09-24T00:05:56.752Z,98935.47
2018-09-24T00:08:24.547Z,98941.55
2018-09-24T00:10:52.794Z,98947.23
2018-09-24T00:13:20.589Z,98952.42
2018-09-24T00:15:48.433Z,98958.09
2018-09-24T00:21:12.652Z,98967.67
2018-09-24T00:23:40.186Z,98969.40
2018-09-24T00:26:07.658Z,98968.09
2018-09-24T00:28:35.600Z,98984.19
2018-09-24T00:31:02.868Z,98982.86
2018-09-24T00:33:30.973Z,98988.11
2018-09-24T00:35:58.317Z,98999.43
2018-09-24T00:38:25.634Z,99007.28
2018-09-24T00:40:52.946Z,99008.16
2018-09-24T00:43:20.261Z,99006.84
2018-09-24T00:45:47.559Z,99014.70
2018-09-24T00:48:15.163Z,99020.36
2018-09-24T00:50:42.470Z,99024.73
2018-09-24T00:53:09.721Z,99025.16
2018-09-24T00:55:37.024Z,99029.95
2018-09-24T00:58:06.966Z,99030.39
2018-09-24T01:00:34.959Z,99038.67
2018-09-24T01:03:02.649Z,99042.16
2018-09-24T01:05:29.977Z,99052.62
2018-09-24T01:07:57.389Z,99057.84
2018-09-24T01:10:24.646Z,99055.67
2018-09-24T01:12:54.289Z,99057.39
2018-09-24T01:15:21.850Z,99062.64
2018-09-24T01:17:49.143Z,99072.66
2018-09-24T01:20:16.408Z,99079.59
2018-09-24T01:22:45.367Z,99084.42
2018-09-24T01:25:12.780Z,99092.69
2018-09-24T01:27:40.614Z,99095.30
2018-09-24T01:30:08.014Z,99101.39
2018-09-24T01:32:36.366Z,99100.97
2018-09-24T01:35:03.736Z,99104.45
2018-09-24T01:37:31.507Z,99110.09
2018-09-24T01:39:58.880Z,99111.41
2018-09-24T01:42:26.236Z,99108.80
2018-09-24T01:44:53.489Z,99121.86
2018-09-24T01:47:20.833Z,99121.44
2018-09-24T01:49:48.116Z,99134.95
2018-09-24T01:52:17.620Z,99141.05
2018-09-24T01:54:44.913Z,99146.73
2018-09-24T01:57:14.806Z,99148.02
2018-09-24T01:59:47.419Z,99144.53
2018-09-24T02:02:15.055Z,99148.88
2018-09-24T02:04:42.590Z,99155.86
2018-09-24T02:07:09.908Z,99157.16
2018-09-24T02:09:37.217Z,99161.51
2018-09-24T02:12:05.760Z,99168.52
2018-09-24T02:14:33.072Z,99171.12
2018-09-24T02:17:00.383Z,99171.53
2018-09-24T02:19:27.810Z,99172.84
2018-09-24T02:21:55.065Z,99177.20
2018-09-24T02:24:22.355Z,99180.24
2018-09-24T02:26:49.647Z,99182.86
2018-09-24T02:29:17.618Z,99189.85
2018-09-24T02:31:44.892Z,99188.55
2018-09-24T02:34:12.470Z,99195.95
2018-09-24T02:36:40.072Z,99199.44
2018-09-24T02:39:08.429Z,99204.25
2018-09-24T02:41:35.763Z,99212.54
2018-09-24T02:44:03.028Z,99216.45
2018-09-24T02:46:30.328Z,99221.25
2018-09-24T02:49:01.556Z,99225.19
2018-09-24T02:51:29.381Z,99231.73
2018-09-24T02:53:56.618Z,99239.98
2018-09-24T02:56:23.897Z,99234.75
2018-09-24T02:58:51.147Z,99244.38
2018-09-24T03:01:18.525Z,99241.33
2018-09-24T03:03:46.046Z,99254.84
2018-09-24T03:06:13.329Z,99262.69
2018-09-24T03:08:40.837Z,99258.75
2018-09-24T03:11:08.118Z,99267.48
2018-09-24T03:13:35.701Z,99264.88
2018-09-24T03:16:02.959Z,99273.60
2018-09-24T03:18:30.230Z,99277.08
2018-09-24T03:20:58.103Z,99282.75
2018-09-24T03:23:26.397Z,99291.47
2018-09-24T03:25:54.129Z,99291.03
2018-09-24T03:28:21.385Z,99293.66
2018-09-24T03:30:48.710Z,99301.92
2018-09-24T03:33:16.077Z,99298.45
2018-09-24T03:35:43.369Z,99294.53
2018-09-24T03:38:10.682Z,99301.92
2018-09-24T03:40:38.022Z,99304.53
2018-09-24T03:43:05.951Z,99306.72
2018-09-24T03:45:33.239Z,99307.15
2018-09-24T03:48:00.511Z,99301.48
2018-09-24T03:50:29.338Z,99302.36
2018-09-24T03:52:56.634Z,99307.16
2018-09-24T03:55:23.874Z,99309.33
2018-09-24T03:57:52.253Z,99311.10
2018-09-24T04:00:20.016Z,99313.28
2018-09-24T04:02:48.221Z,99318.06
2018-09-24T04:05:21.357Z,99327.21
2018-09-24T04:07:54.307Z,99334.63
2018-09-24T04:10:27.227Z,99340.30
2018-09-24T04:13:00.216Z,99341.63
2018-09-24T04:15:33.812Z,99341.19
2018-09-24T04:18:06.890Z,99343.37
2018-09-24T04:20:40.156Z,99347.73
2018-09-24T04:23:13.181Z,99353.81
2018-09-24T04:25:47.129Z,99353.41
2018-09-24T04:28:20.292Z,99358.20
2018-09-24T04:30:53.396Z,99359.48
2018-09-24T04:33:26.501Z,99357.74
2018-09-24T04:35:59.407Z,99355.56
2018-09-24T04:38:32.435Z,99352.93
2018-09-24T04:41:05.271Z,99351.63
2018-09-24T04:43:38.373Z,99362.97
2018-09-24T04:46:11.611Z,99361.19
2018-09-24T04:48:45.290Z,99364.69
2018-09-24T04:51:18.344Z,99369.48
2018-09-24T04:53:51.936Z,99376.45
2018-09-24T04:56:24.969Z,99382.55
2018-09-24T04:59:02.264Z,99380.84
2018-09-24T05:01:35.539Z,99385.20
2018-09-24T05:04:08.637Z,99394.36
2018-09-24T05:06:41.651Z,99397.00
2018-09-24T05:09:14.845Z,99402.20
2018-09-24T05:11:47.985Z,99407.87
2018-09-24T05:14:21.534Z,99413.13
2018-09-24T05:16:56.882Z,99419.23
2018-09-24T05:19:33.013Z,99423.16
2018-09-24T05:22:06.001Z,99422.75
2018-09-24T05:24:41.324Z,99434.11
2018-09-24T05:27:15.947Z,99441.52
2018-09-24T05:29:48.932Z,99429.77
2018-09-24T05:32:22.720Z,99431.03
2018-09-24T05:34:58.299Z,99441.94
2018-09-24T05:37:31.305Z,99439.32
2018-09-24T05:40:05.232Z,99452.84
2018-09-24T05:42:38.318Z,99456.77
2018-09-24T05:45:11.992Z,99451.09
2018-09-24T05:47:48.491Z,99448.05
2018-09-24T05:50:21.703Z,99456.73
2018-09-24T05:52:54.932Z,99469.83
2018-09-24T05:55:28.178Z,99465.48
2018-09-24T05:58:01.120Z,99468.57
2018-09-24T06:00:34.211Z,99467.27
2018-09-24T06:03:10.669Z,99475.09
2018-09-24T06:05:45.741Z,99488.17
2018-09-24T06:08:23.870Z,99495.62
2018-09-24T06:10:58.539Z,99490.79
2018-09-24T06:13:33.293Z,99502.12
2018-09-24T06:16:06.706Z,99503.00
2018-09-24T06:18:40.573Z,99497.33
2018-09-24T06:21:16.069Z,99513.03
2018-09-24T06:23:52.608Z,99516.95
2018-09-24T06:26:27.367Z,99521.31
2018-09-24T06:29:01.361Z,99526.59
2018-09-24T06:31:34.891Z,99536.62
2018-09-24T06:34:08.551Z,99542.33
2018-09-24T06:36:42.177Z,99538.86
2018-09-24T06:39:16.093Z,99545.91
2018-09-24T06:41:49.130Z,99543.72
2018-09-24T06:44:22.120Z,99548.54
2018-09-24T06:46:55.230Z,99552.90
2018-09-24T06:49:29.588Z,99557.77
2018-09-24T06:52:02.794Z,99556.02
2018-09-24T06:54:36.204Z,99563.45
2018-09-24T06:57:09.365Z,99567.82
2018-09-24T06:59:42.673Z,99566.52
2018-09-24T07:02:15.701Z,99575.70
2018-09-24T07:04:48.787Z,99573.52
2018-09-24T07:07:21.933Z,99580.53
2018-09-24T07:09:55.520Z,99581.45
2018-09-24T07:12:28.773Z,99590.61
2018-09-24T07:15:01.865Z,99601.55
2018-09-24T07:17:35.415Z,99605.50
2018-09-24T07:20:08.970Z,99610.29
2018-09-24T07:22:42.360Z,99614.22
2018-09-24T07:25:15.489Z,99615.52
2018-09-24T07:27:50.345Z,99615.84
2018-09-24T07:30:23.252Z,99621.10
2018-09-24T07:32:56.410Z,99632.80
2018-09-24T07:35:29.316Z,99635.05
2018-09-24T07:40:42.244Z,99648.70
2018-09-24T07:43:16.119Z,99649.19
2018-09-24T07:45:53.249Z,99657.50
2018-09-24T07:48:27.097Z,99663.22
2018-09-24T07:51:00.430Z,99674.57
2018-09-24T07:53:33.654Z,99671.04
2018-09-24T07:56:07.553Z,99674.99
2018-09-24T07:58:45.079Z,99678.49
2018-09-24T08:01:19.512Z,99681.57
2018-09-24T08:03:52.832Z,99703.86
2018-09-24T08:06:27.312Z,99695.11
2018-09-24T08:09:00.800Z,99692.05
2018-09-24T08:11:44.768Z,99707.36
2018-09-24T08:14:28.544Z,99705.63
2018-09-24T08:17:12.399Z,99715.24
2018-09-24T08:20:00.234Z,99714.37
2018-09-24T08:22:33.182Z,99716.11
2018-09-24T08:25:07.167Z,99719.17
2018-09-24T08:27:41.693Z,99719.16
2018-09-24T08:30:16.030Z,99715.58
2018-09-24T08:32:49.285Z,99724.30
2018-09-24T08:35:28.325Z,99729.12
2018-09-24T08:38:01.580Z,99737.50
2018-09-24T08:43:38.477Z,99748.48
2018-09-24T08:46:11.455Z,99741.52
2018-09-24T08:48:44.509Z,99755.92
2018-09-24T08:51:17.496Z,99763.33
2018-09-24T08:53:51.383Z,99764.63
2018-09-24T08:56:26.596Z,99768.59
2018-09-24T08:59:00.123Z,99772.55
2018-09-24T09:01:33.166Z,99772.16
2018-09-24T09:04:06.363Z,99768.17
2018-09-24T09:06:39.606Z,99767.66
2018-09-24T09:09:15.921Z,99762.42
2018-09-24T09:11:49.886Z,99764.55
2018-09-24T09:14:22.927Z,99768.39
2018-09-24T09:17:00.598Z,99771.49
2018-09-24T09:19:33.766Z,99781.51
2018-09-24T09:22:13.507Z,99781.15
2018-09-24T09:24:50.985Z,99782.66
2018-09-24T09:27:25.585Z,99787.25
2018-09-24T09:30:02.706Z,99773.76
2018-09-24T09:32:35.900Z,99776.31
2018-09-24T09:35:09.124Z,99785.34
2018-09-24T09:37:42.185Z,99777.67
2018-09-24T09:40:15.442Z,99783.59
2018-09-24T09:42:51.723Z,99789.15
2018-09-24T09:45:25.905Z,99784.84
2018-09-24T09:48:02.193Z,99805.66
2018-09-24T09:50:35.169Z,99808.05
2018-09-24T09:53:10.361Z,99813.78
2018-09-24T09:55:44.672Z,99802.02
2018-09-24T09:58:19.490Z,99800.46
2018-09-24T10:00:52.597Z,99803.58
2018-09-24T10:03:26.213Z,99815.04
2018-09-24T10:06:00.085Z,99807.86
2018-09-24T10:08:41.402Z,99804.00
2018-09-24T10:14:20.799Z,99800.99
2018-09-24T10:16:55.671Z,99800.33
2018-09-24T10:19:30.456Z,99806.47
2018-09-24T10:22:03.568Z,99793.91
2018-09-24T10:24:36.527Z,99812.79
2018-09-24T10:27:09.737Z,99791.59
2018-09-24T10:29:42.931Z,99812.66
2018-09-24T10:32:16.257Z,99813.03
2018-09-24T10:34:49.283Z,99800.19
2018-09-24T10:37:22.382Z,99813.50
2018-09-24T10:40:01.975Z,99818.74
2018-09-24T10:42:35.192Z,99838.09
2018-09-24T10:45:08.515Z,99848.13
2018-09-24T10:47:41.738Z,99843.45
2018-09-24T10:50:15.176Z,99839.85
2018-09-24T10:52:49.015Z,99834.37
2018-09-24T10:55:22.066Z,99821.05
2018-09-24T10:57:55.128Z,99828.27
2018-09-24T11:00:28.604Z,99820.09
2018-09-24T11:03:01.521Z,99813.13
2018-09-24T11:05:35.797Z,99812.12
2018-09-24T11:08:09.213Z,99799.48
2018-09-24T11:10:44.462Z,99804.23
2018-09-24T11:13:17.622Z,99817.00
2018-09-24T11:16:04.876Z,99809.14
2018-09-24T11:18:38.576Z,99819.88
2018-09-24T11:21:12.114Z,99815.22
2018-09-24T11:23:45.668Z,99820.70
2018-09-24T11:28:52.398Z,99804.95
2018-09-24T11:31:25.761Z,99802.71
2018-09-24T11:34:00.381Z,99798.73
2018-09-24T11:36:33.783Z,99796.65
2018-09-24T11:39:06.902Z,99789.59
2018-09-24T11:41:40.453Z,99787.52
2018-09-24T11:44:13.885Z,99791.56
2018-09-24T11:46:47.176Z,99784.30
2018-09-24T11:49:23.270Z,99791.51
2018-09-24T11:51:57.440Z,99791.55
2018-09-24T11:54:30.538Z,99782.58
2018-09-24T11:57:03.630Z,99778.84
2018-09-24T11:59:36.820Z,99785.91
2018-09-24T12:02:10.760Z,99785.94
2018-09-24T12:04:44.088Z,99778.28
2018-09-24T12:07:17.123Z,99780.45
2018-09-24T12:09:50.125Z,99779.85
2018-09-24T12:12:23.388Z,99782.48
2018-09-24T12:14:56.334Z,99780.18
2018-09-24T12:17:29.449Z,99782.11
2018-09-24T12:20:02.792Z,99771.20
2018-09-24T12:22:35.811Z,99772.02
2018-09-24T12:25:09.153Z,99762.56
2018-09-24T12:27:47.612Z,99773.08
2018-09-24T12:30:20.946Z,99787.02
2018-09-24T12:32:54.981Z,99774.56
2018-09-24T12:35:28.078Z,99788.88
2018-09-24T12:38:01.105Z,99797.22
2018-09-24T12:40:35.762Z,99792.66
2018-09-24T12:43:08.922Z,99800.39
2018-09-24T12:45:43.606Z,99784.16
2018-09-24T12:48:16.764Z,99783.44
2018-09-24T12:50:57.253Z,99791.34
2018-09-24T12:53:30.593Z,99777.27
2018-09-24T12:56:03.942Z,99778.25
2018-09-24T12:58:37.064Z,99772.84
2018-09-24T13:01:10.455Z,99776.27
2018-09-24T13:03:43.708Z,99767.87
2018-09-24T13:06:18.040Z,99773.77
2018-09-24T13:08:52.215Z,99775.70
2018-09-24T13:11:28.375Z,99763.25
2018-09-24T13:14:01.913Z,99768.30
2018-09-24T13:16:37.724Z,99777.34
2018-09-24T13:19:11.264Z,99763.84
2018-09-24T13:21:46.619Z,99775.05
2018-09-24T13:24:19.726Z,99778.55
2018-09-24T13:26:52.988Z,99771.04
2018-09-24T13:29:26.781Z,99771.20
2018-09-24T13:32:01.584Z,99774.83
2018-09-24T13:34:35.358Z,99766.90
2018-09-24T13:37:08.710Z,99772.78
2018-09-24T13:39:44.057Z,99772.30
2018-09-24T13:42:17.222Z,99775.58
2018-09-24T13:44:50.706Z,99776.33
2018-09-24T13:47:23.960Z,99775.28
2018-09-24T13:49:58.477Z,99764.86
2018-09-24T13:52:31.409Z,99769.08
2018-09-24T13:55:04.863Z,99766.38
2018-09-24T13:57:38.227Z,99764.04
2018-09-24T14:00:12.308Z,99764.17
2018-09-24T14:02:45.816Z,99759.69
2018-09-24T14:05:19.469Z,99758.30
2018-09-24T14:07:53.389Z,99757.64
2018-09-24T14:10:27.252Z,99772.69
2018-09-24T14:13:00.734Z,99771.03
2018-09-24T14:15:34.231Z,99785.23
2018-09-24T14:18:07.653Z,99798.11
2018-09-24T14:20:43.948Z,99807.57
2018-09-24T14:23:18.144Z,99815.92
2018-09-24T14:25:55.400Z,99823.09
2018-09-24T14:28:28.648Z,99817.86
2018-09-24T14:31:03.575Z,99814.88
2018-09-24T14:33:36.797Z,99812.66
2018-09-24T14:36:12.979Z,99807.41
2018-09-24T14:38:46.555Z,99810.50
2018-09-24T14:41:19.840Z,99808.77
2018-09-24T14:43:53.816Z,99807.88
2018-09-24T14:46:27.406Z,99798.17
2018-09-24T14:49:00.950Z,99801.59
2018-09-24T14:51:34.564Z,99804.55
2018-09-24T14:54:07.958Z,99809.73
2018-09-24T14:56:41.874Z,99816.30
2018-09-24T14:59:15.216Z,99816.78
2018-09-24T15:01:49.250Z,99812.40
2018-09-24T15:04:22.524Z,99816.34
2018-09-24T15:06:56.330Z,99822.53
2018-09-24T15:09:29.767Z,99809.86
2018-09-24T15:12:02.864Z,99824.38
2018-09-24T15:14:52.028Z,99834.48
2018-09-24T15:17:36.975Z,99849.48
2018-09-24T15:20:23.612Z,99845.11
2018-09-24T15:23:04.393Z,99862.66
2018-09-24T15:25:49.098Z,99877.61
2018-09-24T15:28:22.190Z,99875.01
2018-09-24T15:30:55.188Z,99874.16
2018-09-24T15:33:39.723Z,99871.08
2018-09-24T15:36:25.038Z,99866.27
2018-09-24T15:38:58.303Z,99873.25
2018-09-24T15:41:31.450Z,99876.79
2018-09-24T15:44:05.809Z,99882.03
2018-09-24T15:46:39.308Z,99875.05
2018-09-24T15:49:12.437Z,99878.12
2018-09-24T15:51:45.446Z,99880.75
2018-09-24T15:54:18.494Z,99885.58
2018-09-24T15:56:57.012Z,99888.20
2018-09-24T15:59:30.264Z,99893.45
2018-09-24T16:02:03.848Z,99891.69
2018-09-24T16:04:36.888Z,99890.80
2018-09-24T16:07:10.055Z,99891.25
2018-09-24T16:09:44.491Z,99892.13
2018-09-24T16:12:17.677Z,99905.72
2018-09-24T16:14:50.987Z,99908.69
2018-09-24T16:17:24.320Z,99902.93
2018-09-24T16:19:57.667Z,99909.47
2018-09-24T16:22:30.797Z,99906.34
2018-09-24T16:25:03.780Z,99912.89
2018-09-24T16:27:36.915Z,99899.30
2018-09-24T16:30:15.241Z,99905.42
2018-09-24T16:32:52.259Z,99907.57
2018-09-24T16:35:25.951Z,99923.75
2018-09-24T16:38:02.632Z,99918.50
2018-09-24T16:40:37.302Z,99930.75
2018-09-24T16:46:09.798Z,99928.56
2018-09-24T16:48:52.122Z,99940.84
2018-09-24T16:51:25.392Z,99943.03
2018-09-24T16:53:58.708Z,99953.56
2018-09-24T16:56:32.642Z,99959.66
2018-09-24T16:59:06.997Z,99958.77
2018-09-24T17:01:40.200Z,99960.52
2018-09-24T17:04:13.980Z,99967.95
2018-09-24T17:06:52.448Z,99972.77
2018-09-24T17:33:29.304Z,99989.84
2018-09-24T17:36:17.339Z,99995.88
2018-09-24T17:38:50.363Z,99999.31
2018-09-24T17:41:24.338Z,100007.55
2018-09-24T17:43:57.328Z,100009.27
2018-09-24T17:46:30.979Z,100010.09
2018-09-24T17:49:03.823Z,100011.84
2018-09-24T17:51:39.764Z,100018.45
2018-09-24T17:54:12.735Z,100021.53
2018-09-24T17:56:46.995Z,100022.02
2018-09-24T17:59:19.980Z,100031.21
2018-09-24T18:01:55.277Z,100025.14
2018-09-24T18:04:28.920Z,100036.58
2018-09-24T18:07:02.991Z,100033.16
2018-09-24T18:09:38.936Z,100042.35
2018-09-24T18:12:11.943Z,100046.73
2018-09-24T18:14:45.906Z,100056.82
2018-09-24T18:17:19.507Z,100055.95
2018-09-24T18:19:52.429Z,100068.20
2018-09-24T18:22:25.532Z,100076.95
2018-09-24T18:24:58.472Z,100084.88
2018-09-24T18:27:31.588Z,100096.96
2018-09-24T18:30:06.167Z,100073.29
2018-09-24T18:32:39.127Z,100077.14
2018-09-24T18:35:12.246Z,100084.06
2018-09-24T18:37:45.114Z,100096.30
2018-09-24T18:40:18.024Z,100100.63
2018-09-24T18:42:51.263Z,100098.91
2018-09-24T18:45:24.904Z,100106.39
2018-09-24T18:47:57.723Z,100109.81
2018-09-24T18:50:30.641Z,100109.27
2018-09-24T18:53:03.596Z,100117.01
2018-09-24T18:55:36.647Z,100102.59
2018-09-24T18:58:09.666Z,100099.11
2018-09-24T19:00:42.673Z,100115.27
2018-09-24T19:03:15.712Z,100109.52
2018-09-24T19:08:52.397Z,100126.08
2018-09-24T19:11:27.957Z,100122.59
2018-09-24T19:13:58.477Z,100118.22
2018-09-24T19:16:32.407Z,100118.68
2018-09-24T19:19:06.568Z,100128.21
2018-09-24T19:21:39.606Z,100125.13
2018-09-24T19:24:12.788Z,100126.01
2018-09-24T19:26:45.825Z,100128.70
2018-09-24T19:29:19.864Z,100134.38
2018-09-24T19:31:55.100Z,100138.67
2018-09-24T19:34:33.664Z,100140.00
2018-09-24T19:37:15.448Z,100144.41
2018-09-24T19:39:52.958Z,100150.87
2018-09-24T19:42:29.455Z,100152.98
2018-09-24T19:45:07.807Z,100153.41
2018-09-24T19:47:55.393Z,100149.91
2018-09-24T19:50:44.783Z,100148.09
2018-09-24T19:53:22.588Z,100144.53
2018-09-24T19:55:58.089Z,100151.41
2018-09-24T19:58:36.486Z,100151.31
2018-09-24T20:01:16.241Z,100150.32
2018-09-24T20:03:55.517Z,100148.44
2018-09-24T20:06:32.020Z,100155.76
2018-09-24T20:09:05.756Z,100167.53
2018-09-24T20:11:39.118Z,100161.45
2018-09-24T20:14:12.640Z,100170.30
2018-09-24T20:16:45.890Z,100174.33
2018-09-24T20:19:19.291Z,100185.31
2018-09-24T20:21:52.608Z,100180.55
2018-09-24T20:24:25.899Z,100192.43
2018-09-24T20:26:59.119Z,100185.03
2018-09-24T20:29:32.915Z,100186.81
2018-09-24T20:32:06.221Z,100190.40
2018-09-24T20:34:40.302Z,100193.53
2018-09-24T20:37:13.275Z,100207.95
2018-09-24T20:39:46.162Z,100206.67
2018-09-24T20:42:21.395Z,100205.81
2018-09-24T20:44:54.783Z,100201.84
2018-09-24T20:47:28.031Z,100192.59
2018-09-24T20:50:00.977Z,100198.22
2018-09-24T20:52:34.272Z,100197.77
2018-09-24T20:55:07.301Z,100198.59
2018-09-24T20:57:41.855Z,100193.77
2018-09-24T21:00:14.974Z,100193.74
2018-09-24T21:02:48.812Z,100188.92
2018-09-24T21:05:22.324Z,100190.48
2018-09-24T21:07:55.446Z,100195.49
2018-09-24T21:10:31.924Z,100193.16
2018-09-24T21:13:05.132Z,100194.40
2018-09-24T21:15:38.759Z,100200.01
2018-09-24T21:18:12.623Z,100215.22
2018-09-24T21:20:46.363Z,100217.72
2018-09-24T21:23:19.507Z,100221.98
2018-09-24T21:25:52.615Z,100226.27
2018-09-24T21:28:26.214Z,100231.42
2018-09-24T21:30:59.341Z,100227.91
2018-09-24T21:33:33.170Z,100231.77
2018-09-24T21:36:06.456Z,100235.14
2018-09-24T21:38:40.523Z,100246.77
2018-09-24T21:41:13.591Z,100245.01
2018-09-24T21:43:46.992Z,100244.03
2018-09-24T21:46:20.326Z,100247.45
2018-09-24T21:48:53.320Z,100255.72
2018-09-24T21:51:27.255Z,100253.56
2018-09-24T21:54:01.069Z,100260.89
2018-09-24T21:56:34.723Z,100263.94
2018-09-24T21:59:07.687Z,100264.74
2018-09-24T22:01:40.563Z,100259.54
2018-09-24T22:04:13.610Z,100265.62
2018-09-24T22:06:47.127Z,100267.30
2018-09-24T22:09:20.181Z,100275.52
2018-09-24T22:11:55.486Z,100277.60
2018-09-24T22:14:28.415Z,100282.27
2018-09-24T22:17:01.482Z,100280.00
2018-09-24T22:19:34.410Z,100287.38
2018-09-24T22:22:20.778Z,100289.20
2018-09-24T22:24:53.806Z,100291.41
2018-09-24T22:27:26.748Z,100289.23
2018-09-24T22:29:59.664Z,100295.67
2018-09-24T22:32:32.612Z,100302.53
2018-09-24T22:35:05.604Z,100304.09
2018-09-24T22:37:38.614Z,100303.12
2018-09-24T22:40:11.814Z,100306.45
2018-09-24T22:42:44.785Z,100308.13
2018-09-24T22:45:17.737Z,100306.67
2018-09-24T22:47:50.589Z,100307.01
2018-09-24T22:50:23.984Z,100310.07
2018-09-24T22:52:56.948Z,100306.47
2018-09-24T22:55:29.952Z,100308.08
2018-09-24T22:58:02.927Z,100308.02
2018-09-24T23:00:36.141Z,100314.54
2018-09-24T23:03:09.138Z,100311.78
2018-09-24T23:05:42.129Z,100322.31
2018-09-24T23:08:18.522Z,100322.31
2018-09-24T23:10:52.439Z,100326.56
2018-09-24T23:13:25.608Z,100326.92
2018-09-24T23:15:59.612Z,100328.55
2018-09-24T23:18:33.617Z,100331.92
2018-09-24T23:21:06.810Z,100329.61
2018-09-24T23:23:39.696Z,100336.07
2018-09-24T23:26:12.989Z,100325.63
2018-09-24T23:28:46.134Z,100327.27
2018-09-24T23:31:20.953Z,100334.57
2018-09-24T23:33:53.891Z,100330.49
2018-09-24T23:36:26.825Z,100333.43
2018-09-24T23:38:59.676Z,100331.11
2018-09-24T23:41:32.611Z,100335.41
2018-09-24T23:44:07.019Z,100335.64
2018-09-24T23:46:40.134Z,100333.80
2018-09-24T23:49:13.348Z,100335.64
2018-09-24T23:51:46.654Z,100344.87
2018-09-24T23:54:20.506Z,100347.16
2018-09-24T23:56:54.392Z,100345.63
2018-09-24T23:59:29.061Z,100350.55
